createdAt,value
2018-08-28T00:01:39.503Z,31.65
2018-08-28T00:04:12.890Z,31.65
2018-08-28T00:06:46.262Z,31.90
2018-08-28T00:09:19.714Z,30.82
2018-08-28T00:11:53.090Z,31.42
2018-08-28T00:14:26.475Z,31.82
2018-08-28T00:16:59.860Z,31.33
2018-08-28T00:19:33.269Z,30.52
2018-08-28T00:22:06.652Z,31.42
2018-08-28T00:24:40.044Z,31.57
2018-08-28T00:27:13.431Z,31.55
2018-08-28T00:29:46.848Z,31.12
2018-08-28T00:32:20.254Z,31.30
2018-08-28T00:34:53.655Z,31.15
2018-08-28T00:37:27.027Z,31.33
2018-08-28T00:40:00.410Z,30.82
2018-08-28T00:42:33.792Z,34.10
2018-08-28T00:45:07.354Z,31.87
2018-08-28T00:47:40.722Z,31.12
2018-08-28T00:50:14.115Z,31.07
2018-08-28T00:52:47.482Z,30.77
2018-08-28T00:55:20.862Z,31.65
2018-08-28T00:57:54.337Z,31.15
2018-08-28T01:00:27.718Z,31.45
2018-08-28T01:03:01.255Z,31.12
2018-08-28T01:05:34.641Z,31.10
2018-08-28T01:08:08.038Z,31.35
2018-08-28T01:10:42.502Z,31.17
2018-08-28T01:13:15.906Z,31.12
2018-08-28T01:15:49.278Z,31.95
2018-08-28T01:18:22.670Z,31.25
2018-08-28T01:20:56.039Z,30.97
2018-08-28T01:23:29.425Z,31.15
2018-08-28T01:26:02.790Z,31.02
2018-08-28T01:28:36.187Z,31.93
2018-08-28T01:31:09.623Z,31.45
2018-08-28T01:33:43.034Z,31.17
2018-08-28T01:36:16.394Z,31.50
2018-08-28T01:38:49.778Z,30.60
2018-08-28T01:41:23.152Z,30.88
2018-08-28T01:43:56.542Z,31.55
2018-08-28T01:46:29.902Z,31.05
2018-08-28T01:49:03.291Z,30.75
2018-08-28T01:51:36.654Z,30.77
2018-08-28T01:54:10.035Z,31.45
2018-08-28T01:56:43.407Z,31.40
2018-08-28T01:59:16.791Z,31.30
2018-08-28T02:01:50.155Z,31.65
2018-08-28T02:04:23.550Z,31.20
2018-08-28T02:06:56.910Z,31.82
2018-08-28T02:09:30.306Z,31.10
2018-08-28T02:12:03.672Z,32.88
2018-08-28T02:14:37.070Z,32.48
2018-08-28T02:17:10.434Z,31.97
2018-08-28T02:19:43.831Z,32.30
2018-08-28T02:22:17.205Z,32.88
2018-08-28T02:24:50.586Z,32.48
2018-08-28T02:27:23.953Z,32.35
2018-08-28T02:29:57.334Z,32.25
2018-08-28T02:32:30.754Z,32.28
2018-08-28T02:35:04.238Z,32.15
2018-08-28T02:37:37.639Z,33.33
2018-08-28T02:40:11.075Z,33.25
2018-08-28T02:42:44.495Z,33.20
2018-08-28T02:45:17.939Z,33.08
2018-08-28T02:47:51.358Z,33.33
2018-08-28T02:50:24.842Z,32.23
2018-08-28T02:52:58.248Z,33.23
2018-08-28T02:55:31.677Z,33.40
2018-08-28T02:58:05.083Z,33.23
2018-08-28T03:00:38.503Z,32.78
2018-08-28T03:03:11.922Z,33.83
2018-08-28T03:05:45.359Z,33.98
2018-08-28T03:08:18.820Z,32.88
2018-08-28T03:10:52.244Z,34.20
2018-08-28T03:13:25.706Z,33.15
2018-08-28T03:15:59.191Z,32.85
2018-08-28T03:18:32.563Z,33.13
2018-08-28T03:21:05.994Z,33.20
2018-08-28T03:23:39.922Z,33.70
2018-08-28T03:26:13.454Z,33.50
2018-08-28T03:28:46.862Z,33.00
2018-08-28T03:31:20.282Z,33.53
2018-08-28T03:33:53.855Z,33.88
2018-08-28T03:36:27.288Z,34.30
2018-08-28T03:39:00.903Z,34.55
2018-08-28T03:41:34.330Z,33.80
2018-08-28T03:44:07.730Z,33.45
2018-08-28T03:46:41.139Z,33.60
2018-08-28T03:49:14.531Z,33.23
2018-08-28T03:51:47.936Z,33.78
2018-08-28T03:54:21.322Z,33.05
2018-08-28T03:56:54.757Z,33.20
2018-08-28T03:59:28.146Z,34.13
2018-08-28T04:02:01.546Z,33.05
2018-08-28T04:04:34.946Z,33.98
2018-08-28T04:07:08.360Z,33.18
2018-08-28T04:09:41.755Z,33.67
2018-08-28T04:12:15.158Z,33.83
2018-08-28T04:14:48.547Z,32.85
2018-08-28T04:17:21.966Z,33.60
2018-08-28T04:19:55.370Z,33.05
2018-08-28T04:22:28.827Z,34.95
2018-08-28T04:25:02.187Z,34.60
2018-08-28T04:27:35.591Z,33.33
2018-08-28T04:30:09.061Z,34.23
2018-08-28T04:32:42.491Z,34.75
2018-08-28T04:35:15.879Z,34.00
2018-08-28T04:37:49.282Z,33.55
2018-08-28T04:40:22.663Z,33.35
2018-08-28T04:42:56.077Z,32.85
2018-08-28T04:45:29.459Z,34.48
2018-08-28T04:48:02.903Z,34.58
2018-08-28T04:50:36.290Z,34.15
2018-08-28T04:53:09.699Z,34.08
2018-08-28T04:55:43.119Z,33.55
2018-08-28T04:58:16.630Z,33.48
2018-08-28T05:00:50.050Z,33.33
2018-08-28T05:03:23.450Z,33.53
2018-08-28T05:05:56.837Z,33.80
2018-08-28T05:08:30.246Z,33.50
2018-08-28T05:11:03.642Z,34.18
2018-08-28T05:13:37.046Z,33.48
2018-08-28T05:16:10.531Z,34.08
2018-08-28T05:18:43.942Z,33.92
2018-08-28T05:21:17.331Z,33.65
2018-08-28T05:23:50.747Z,32.55
2018-08-28T05:26:24.143Z,32.53
2018-08-28T05:28:57.563Z,33.35
2018-08-28T05:31:30.966Z,33.33
2018-08-28T05:34:04.411Z,33.83
2018-08-28T05:36:37.843Z,34.05
2018-08-28T05:39:11.286Z,33.75
2018-08-28T05:41:44.712Z,33.63
2018-08-28T05:44:18.954Z,34.43
2018-08-28T05:46:52.354Z,34.83
2018-08-28T05:49:25.831Z,34.15
2018-08-28T05:51:59.235Z,35.08
2018-08-28T05:54:32.655Z,35.10
2018-08-28T05:57:06.127Z,34.65
2018-08-28T05:59:39.563Z,34.00
2018-08-28T06:02:12.994Z,34.33
2018-08-28T06:04:46.414Z,34.67
2018-08-28T06:07:19.825Z,33.88
2018-08-28T06:09:53.247Z,33.88
2018-08-28T06:12:26.657Z,34.15
2018-08-28T06:15:00.215Z,34.58
2018-08-28T06:17:33.626Z,33.55
2018-08-28T06:20:07.195Z,35.00
2018-08-28T06:22:40.612Z,34.55
2018-08-28T06:25:14.042Z,34.73
2018-08-28T06:27:47.459Z,34.73
2018-08-28T06:30:20.914Z,35.80
2018-08-28T06:32:54.366Z,34.50
2018-08-28T06:35:27.786Z,34.83
2018-08-28T06:38:01.195Z,36.23
2018-08-28T06:40:34.629Z,34.75
2018-08-28T06:43:08.043Z,35.03
2018-08-28T06:45:41.492Z,35.35
2018-08-28T06:48:14.909Z,34.78
2018-08-28T06:50:48.355Z,35.63
2018-08-28T06:53:21.884Z,34.63
2018-08-28T06:55:55.311Z,35.13
2018-08-28T06:58:28.718Z,35.52
2018-08-28T07:01:02.267Z,34.85
2018-08-28T07:03:35.676Z,35.48
2018-08-28T07:06:09.106Z,36.10
2018-08-28T07:08:42.511Z,35.85
2018-08-28T07:11:15.991Z,36.50
2018-08-28T07:13:49.395Z,36.13
2018-08-28T07:16:22.852Z,37.60
2018-08-28T07:18:56.271Z,36.17
2018-08-28T07:21:29.699Z,36.63
2018-08-28T07:24:03.107Z,36.73
2018-08-28T07:26:36.534Z,36.30
2018-08-28T07:29:09.979Z,35.90
2018-08-28T07:31:43.511Z,35.55
2018-08-28T07:34:16.851Z,35.15
2018-08-28T07:36:50.287Z,35.23
2018-08-28T07:39:23.699Z,34.60
2018-08-28T07:41:57.126Z,35.05
2018-08-28T07:44:31.123Z,35.78
2018-08-28T07:47:04.577Z,34.80
2018-08-28T07:49:37.991Z,34.45
2018-08-28T07:52:11.450Z,35.43
2018-08-28T07:54:44.850Z,34.48
2018-08-28T07:57:18.290Z,35.20
2018-08-28T07:59:51.704Z,34.75
2018-08-28T08:02:25.479Z,34.15
2018-08-28T08:04:58.908Z,33.85
2018-08-28T08:07:32.334Z,34.00
2018-08-28T08:10:05.959Z,34.40
2018-08-28T08:12:39.432Z,34.70
2018-08-28T08:15:12.858Z,34.43
2018-08-28T08:17:46.297Z,34.80
2018-08-28T08:20:19.730Z,34.30
2018-08-28T08:22:53.170Z,33.23
2018-08-28T08:25:26.574Z,33.90
2018-08-28T08:28:00.070Z,34.70
2018-08-28T08:30:33.483Z,34.95
2018-08-28T08:33:07.118Z,34.50
2018-08-28T08:35:40.542Z,35.03
2018-08-28T08:38:14.286Z,34.50
2018-08-28T08:40:47.703Z,34.35
2018-08-28T08:43:21.175Z,34.75
2018-08-28T08:45:54.588Z,34.43
2018-08-28T08:48:28.017Z,35.40
2018-08-28T08:51:01.460Z,34.10
2018-08-28T08:53:34.887Z,34.18
2018-08-28T08:56:08.332Z,35.40
2018-08-28T08:58:41.839Z,34.45
2018-08-28T09:01:15.249Z,35.03
2018-08-28T09:03:48.705Z,35.13
2018-08-28T09:06:22.119Z,35.35
2018-08-28T09:08:55.578Z,34.67
2018-08-28T09:11:28.996Z,34.83
2018-08-28T09:14:02.426Z,35.08
2018-08-28T09:16:35.847Z,34.73
2018-08-28T09:19:09.291Z,35.43
2018-08-28T09:21:42.716Z,34.30
2018-08-28T09:24:16.159Z,34.15
2018-08-28T09:26:49.563Z,34.30
2018-08-28T09:29:23.020Z,34.75
2018-08-28T09:31:56.472Z,34.88
2018-08-28T09:34:29.914Z,34.48
2018-08-28T09:37:03.383Z,34.03
2018-08-28T09:39:36.795Z,35.10
2018-08-28T09:42:10.198Z,34.35
2018-08-28T09:44:43.610Z,35.28
2018-08-28T09:47:17.079Z,35.52
2018-08-28T09:49:50.513Z,34.43
2018-08-28T09:52:23.900Z,35.58
2018-08-28T09:54:57.315Z,34.88
2018-08-28T09:57:30.716Z,34.80
2018-08-28T10:00:04.203Z,35.92
2018-08-28T10:02:37.668Z,34.08
2018-08-28T10:05:11.091Z,35.20
2018-08-28T10:07:44.582Z,34.70
2018-08-28T10:10:18.054Z,34.80
2018-08-28T10:12:51.443Z,34.73
2018-08-28T10:15:24.886Z,34.50
2018-08-28T10:17:58.274Z,34.90
2018-08-28T10:20:31.687Z,34.95
2018-08-28T10:23:05.168Z,35.85
2018-08-28T10:25:38.580Z,35.35
2018-08-28T10:28:11.967Z,35.58
2018-08-28T10:30:45.402Z,35.78
2018-08-28T10:33:18.953Z,35.25
2018-08-28T10:35:52.394Z,35.55
2018-08-28T10:38:25.807Z,36.53
2018-08-28T10:40:59.282Z,37.48
2018-08-28T10:43:32.734Z,36.50
2018-08-28T10:46:06.374Z,36.15
2018-08-28T10:48:39.906Z,36.77
2018-08-28T10:51:13.559Z,36.70
2018-08-28T10:53:47.338Z,37.50
2018-08-28T10:56:20.796Z,36.38
2018-08-28T10:58:54.207Z,36.23
2018-08-28T11:01:27.650Z,36.53
2018-08-28T11:04:01.059Z,35.98
2018-08-28T11:06:34.486Z,37.65
2018-08-28T11:09:07.938Z,37.00
2018-08-28T11:11:41.523Z,36.55
2018-08-28T11:14:15.012Z,37.38
2018-08-28T11:16:48.438Z,37.35
2018-08-28T11:19:21.862Z,36.73
2018-08-28T11:21:55.431Z,37.40
2018-08-28T11:24:28.834Z,36.83
2018-08-28T11:27:02.267Z,36.48
2018-08-28T11:29:35.675Z,36.77
2018-08-28T11:32:09.116Z,37.63
2018-08-28T11:34:42.526Z,37.15
2018-08-28T11:37:16.144Z,37.58
2018-08-28T11:39:49.637Z,37.15
2018-08-28T11:42:23.039Z,37.28
2018-08-28T11:44:56.434Z,35.92
2018-08-28T11:47:29.840Z,37.17
2018-08-28T11:50:03.242Z,36.63
2018-08-28T11:52:36.842Z,37.58
2018-08-28T11:55:10.254Z,38.15
2018-08-28T11:57:43.798Z,37.40
2018-08-28T12:00:17.533Z,38.65
2018-08-28T12:02:51.064Z,37.33
2018-08-28T12:05:24.541Z,37.40
2018-08-28T12:07:58.051Z,38.15
2018-08-28T12:10:31.511Z,37.65
2018-08-28T12:13:05.000Z,37.35
2018-08-28T12:15:38.403Z,36.85
2018-08-28T12:18:11.849Z,37.75
2018-08-28T12:20:45.279Z,36.85
2018-08-28T12:23:18.709Z,37.50
2018-08-28T12:25:52.169Z,37.40
2018-08-28T12:28:25.593Z,38.08
2018-08-28T12:30:59.035Z,37.60
2018-08-28T12:33:32.479Z,37.85
2018-08-28T12:36:05.987Z,36.93
2018-08-28T12:38:39.399Z,38.05
2018-08-28T12:41:12.844Z,38.45
2018-08-28T12:43:46.276Z,37.30
2018-08-28T12:46:19.744Z,37.85
2018-08-28T12:48:53.168Z,37.65
2018-08-28T12:51:26.709Z,37.23
2018-08-28T12:54:00.059Z,36.93
2018-08-28T12:56:33.508Z,37.13
2018-08-28T12:59:06.959Z,37.08
2018-08-28T13:01:40.415Z,38.15
2018-08-28T13:04:13.836Z,38.23
2018-08-28T13:06:47.284Z,38.23
2018-08-28T13:09:20.700Z,37.83
2018-08-28T13:11:54.463Z,37.95
2018-08-28T13:14:28.022Z,37.35
2018-08-28T13:17:01.505Z,38.30
2018-08-28T13:19:34.938Z,38.23
2018-08-28T13:22:08.436Z,38.33
2018-08-28T13:24:41.864Z,38.75
2018-08-28T13:27:15.300Z,38.45
2018-08-28T13:29:48.752Z,38.15
2018-08-28T13:32:22.187Z,37.88
2018-08-28T13:34:55.664Z,38.10
2018-08-28T13:37:29.107Z,37.95
2018-08-28T13:40:02.539Z,38.53
2018-08-28T13:42:36.015Z,36.85
2018-08-28T13:45:09.528Z,37.33
2018-08-28T13:47:43.051Z,37.70
2018-08-28T13:50:16.537Z,38.58
2018-08-28T13:52:50.421Z,37.23
2018-08-28T13:55:23.999Z,37.78
2018-08-28T13:57:57.431Z,37.50
2018-08-28T14:00:30.883Z,37.38
2018-08-28T14:03:04.339Z,37.48
2018-08-28T14:05:37.904Z,38.00
2018-08-28T14:08:11.351Z,38.10
2018-08-28T14:10:44.911Z,38.33
2018-08-28T14:13:18.471Z,37.38
2018-08-28T14:15:51.880Z,37.75
2018-08-28T14:18:25.342Z,38.02
2018-08-28T14:20:58.811Z,38.00
2018-08-28T14:23:32.391Z,37.65
2018-08-28T14:26:05.996Z,37.88
2018-08-28T14:28:39.454Z,38.88
2018-08-28T14:31:12.899Z,37.42
2018-08-28T14:33:48.314Z,37.78
2018-08-28T14:36:21.788Z,38.55
2018-08-28T14:38:55.319Z,38.15
2018-08-28T14:41:28.762Z,38.50
2018-08-28T14:44:02.241Z,37.88
2018-08-28T14:46:35.747Z,38.10
2018-08-28T14:49:09.272Z,37.83
2018-08-28T14:51:43.736Z,37.85
2018-08-28T14:54:17.185Z,37.38
2018-08-28T14:56:50.686Z,37.95
2018-08-28T14:59:24.144Z,37.25
2018-08-28T15:01:57.600Z,37.40
2018-08-28T15:04:31.142Z,37.38
2018-08-28T15:07:04.741Z,37.75
2018-08-28T15:09:38.191Z,37.33
2018-08-28T15:12:11.616Z,37.50
2018-08-28T15:14:45.056Z,38.35
2018-08-28T15:17:18.482Z,39.08
2018-08-28T15:19:52.381Z,37.90
2018-08-28T15:22:25.431Z,38.23
2018-08-28T15:24:58.912Z,37.98
2018-08-28T15:27:32.355Z,37.53
2018-08-28T15:30:06.002Z,37.67
2018-08-28T15:32:39.539Z,37.65
2018-08-28T15:35:13.023Z,37.40
2018-08-28T15:37:46.439Z,38.17
2018-08-28T15:40:19.923Z,37.70
2018-08-28T15:42:53.585Z,37.28
2018-08-28T15:45:27.111Z,38.00
2018-08-28T15:48:00.555Z,37.83
2018-08-28T15:50:34.099Z,37.25
2018-08-28T15:53:07.748Z,37.50
2018-08-28T15:55:41.276Z,37.90
2018-08-28T15:58:14.842Z,37.58
2018-08-28T16:00:48.307Z,37.50
2018-08-28T16:03:21.818Z,37.58
2018-08-28T16:05:55.320Z,37.13
2018-08-28T16:08:28.782Z,37.48
2018-08-28T16:11:02.346Z,37.45
2018-08-28T16:13:36.811Z,37.70
2018-08-28T16:16:10.334Z,37.63
2018-08-28T16:18:43.890Z,37.03
2018-08-28T16:21:17.340Z,37.38
2018-08-28T16:23:50.887Z,37.55
2018-08-28T16:26:24.260Z,37.13
2018-08-28T16:28:57.720Z,37.50
2018-08-28T16:31:31.201Z,37.83
2018-08-28T16:34:05.211Z,37.03
2018-08-28T16:36:38.945Z,37.30
2018-08-28T16:39:12.463Z,37.10
2018-08-28T16:41:46.163Z,37.42
2018-08-28T16:44:19.615Z,37.55
2018-08-28T16:46:53.116Z,37.48
2018-08-28T16:49:26.592Z,37.55
2018-08-28T16:52:00.055Z,37.80
2018-08-28T16:54:33.522Z,37.33
2018-08-28T16:57:06.964Z,37.20
2018-08-28T16:59:40.480Z,36.45
2018-08-28T17:02:13.919Z,37.20
2018-08-28T17:04:47.393Z,36.85
2018-08-28T17:07:21.047Z,37.08
2018-08-28T17:09:54.508Z,36.20
2018-08-28T17:12:27.971Z,36.63
2018-08-28T17:15:01.433Z,37.25
2018-08-28T17:17:34.933Z,36.35
2018-08-28T17:20:08.482Z,36.85
2018-08-28T17:22:42.041Z,37.60
2018-08-28T17:25:15.519Z,36.35
2018-08-28T17:27:49.236Z,36.70
2018-08-28T17:30:22.720Z,37.03
2018-08-28T17:32:56.280Z,35.70
2018-08-28T17:35:29.717Z,36.83
2018-08-28T17:38:03.307Z,36.73
2018-08-28T17:40:36.795Z,37.90
2018-08-28T17:43:10.323Z,35.75
2018-08-28T17:45:43.889Z,37.23
2018-08-28T17:48:17.549Z,37.13
2018-08-28T17:50:50.967Z,36.50
2018-08-28T17:53:24.427Z,36.05
2018-08-28T17:55:57.892Z,37.10
2018-08-28T17:58:31.519Z,35.38
2018-08-28T18:01:05.203Z,37.00
2018-08-28T18:03:38.648Z,36.63
2018-08-28T18:06:12.107Z,36.68
2018-08-28T18:08:45.691Z,36.30
2018-08-28T18:11:19.236Z,36.30
2018-08-28T18:13:52.723Z,36.85
2018-08-28T18:16:26.309Z,36.63
2018-08-28T18:19:00.307Z,36.80
2018-08-28T18:21:33.851Z,36.25
2018-08-28T18:24:07.284Z,36.90
2018-08-28T18:26:40.720Z,36.98
2018-08-28T18:29:15.243Z,36.00
2018-08-28T18:31:48.663Z,36.53
2018-08-28T18:34:22.247Z,36.13
2018-08-28T18:36:55.657Z,36.33
2018-08-28T18:39:29.091Z,36.17
2018-08-28T18:42:02.830Z,36.60
2018-08-28T18:44:36.312Z,36.10
2018-08-28T18:47:09.811Z,36.03
2018-08-28T18:49:43.262Z,36.50
2018-08-28T18:52:16.763Z,35.48
2018-08-28T18:54:50.195Z,36.38
2018-08-28T18:57:23.719Z,36.40
2018-08-28T18:59:57.189Z,37.13
2018-08-28T19:02:30.623Z,36.53
2018-08-28T19:05:04.224Z,36.35
2018-08-28T19:07:37.723Z,36.68
2018-08-28T19:10:11.255Z,37.13
2018-08-28T19:12:44.766Z,37.58
2018-08-28T19:15:18.248Z,36.70
2018-08-28T19:17:51.702Z,35.95
2018-08-28T19:20:25.216Z,37.03
2018-08-28T19:22:58.631Z,36.10
2018-08-28T19:25:32.124Z,36.30
2018-08-28T19:28:05.552Z,37.28
2018-08-28T19:30:39.010Z,36.25
2018-08-28T19:33:12.491Z,37.10
2018-08-28T19:35:46.973Z,37.15
2018-08-28T19:38:20.416Z,36.50
2018-08-28T19:40:54.023Z,36.65
2018-08-28T19:43:27.488Z,37.58
2018-08-28T19:46:00.932Z,36.53
2018-08-28T19:48:34.363Z,37.25
2018-08-28T19:51:07.864Z,36.75
2018-08-28T19:53:41.414Z,37.08
2018-08-28T19:56:14.785Z,37.28
2018-08-28T19:58:48.280Z,36.65
2018-08-28T20:01:21.771Z,37.23
2018-08-28T20:03:55.239Z,37.40
2018-08-28T20:06:28.735Z,37.28
2018-08-28T20:09:02.230Z,37.28
2018-08-28T20:11:35.648Z,37.23
2018-08-28T20:14:09.380Z,36.70
2018-08-28T20:16:42.868Z,37.23
2018-08-28T20:19:16.311Z,36.60
2018-08-28T20:21:49.746Z,37.30
2018-08-28T20:24:23.253Z,36.40
2018-08-28T20:26:56.686Z,36.75
2018-08-28T20:29:30.219Z,36.30
2018-08-28T20:32:03.738Z,36.42
2018-08-28T20:34:37.192Z,36.90
2018-08-28T20:37:10.676Z,36.93
2018-08-28T20:39:44.141Z,37.05
2018-08-28T20:42:17.631Z,37.73
2018-08-28T20:44:51.248Z,38.05
2018-08-28T20:47:24.677Z,36.77
2018-08-28T20:49:58.116Z,37.50
2018-08-28T20:52:31.563Z,37.20
2018-08-28T20:55:05.259Z,37.40
2018-08-28T20:57:39.352Z,37.53
2018-08-28T21:00:12.828Z,37.23
2018-08-28T21:02:46.303Z,37.15
2018-08-28T21:05:24.938Z,36.65
2018-08-28T21:08:00.028Z,37.48
2018-08-28T21:10:33.485Z,36.85
2018-08-28T21:13:06.948Z,37.03
2018-08-28T21:15:40.359Z,37.42
2018-08-28T21:18:13.809Z,37.03
2018-08-28T21:20:47.251Z,36.55
2018-08-28T21:23:20.699Z,37.28
2018-08-28T21:25:54.136Z,36.60
2018-08-28T21:28:27.548Z,37.28
2018-08-28T21:31:00.978Z,36.70
2018-08-28T21:33:35.228Z,37.23
2018-08-28T21:36:08.683Z,36.80
2018-08-28T21:38:42.108Z,37.95
2018-08-28T21:41:15.535Z,37.45
2018-08-28T21:43:49.049Z,37.50
2018-08-28T21:46:22.495Z,36.83
2018-08-28T21:48:55.916Z,36.85
2018-08-28T21:51:29.349Z,36.20
2018-08-28T21:54:02.792Z,36.88
2018-08-28T21:56:36.247Z,36.55
2018-08-28T21:59:09.678Z,37.05
2018-08-28T22:01:43.127Z,36.60
2018-08-28T22:04:16.539Z,37.10
2018-08-28T22:06:55.298Z,36.28
2018-08-28T22:09:28.696Z,37.63
2018-08-28T22:12:02.168Z,37.25
2018-08-28T22:14:35.597Z,36.75
2018-08-28T22:17:09.106Z,36.10
2018-08-28T22:19:42.523Z,36.80
2018-08-28T22:22:15.918Z,37.03
2018-08-28T22:24:49.296Z,35.98
2018-08-28T22:27:22.712Z,36.58
2018-08-28T22:29:56.102Z,36.35
2018-08-28T22:32:29.503Z,37.25
2018-08-28T22:35:02.906Z,37.23
2018-08-28T22:37:36.416Z,36.38
2018-08-28T22:40:11.471Z,37.33
2018-08-28T22:42:44.858Z,36.42
2018-08-28T22:45:18.237Z,36.30
2018-08-28T22:47:51.635Z,35.68
2018-08-28T22:50:25.025Z,36.75
2018-08-28T22:52:58.520Z,36.35
2018-08-28T22:55:32.033Z,35.85
2018-08-28T22:58:05.552Z,35.80
2018-08-28T23:00:38.929Z,36.40
2018-08-28T23:03:12.372Z,35.95
2018-08-28T23:05:45.749Z,36.08
2018-08-28T23:08:19.203Z,36.73
2018-08-28T23:10:52.593Z,36.23
2018-08-28T23:13:25.979Z,36.55
2018-08-28T23:15:59.360Z,36.58
2018-08-28T23:18:32.758Z,36.45
2018-08-28T23:21:06.163Z,37.17
2018-08-28T23:23:39.565Z,36.15
2018-08-28T23:26:12.934Z,36.17
2018-08-28T23:28:46.403Z,36.13
2018-08-28T23:31:19.783Z,36.63
2018-08-28T23:33:53.187Z,37.25
2018-08-28T23:36:26.583Z,36.83
2018-08-28T23:38:59.979Z,36.80
2018-08-28T23:41:33.399Z,35.85
2018-08-28T23:44:06.819Z,36.45
2018-08-28T23:46:40.239Z,37.42
2018-08-28T23:49:13.686Z,37.03
2018-08-28T23:51:47.071Z,36.40
2018-08-28T23:54:20.459Z,36.45
2018-08-28T23:56:53.832Z,36.10
2018-08-28T23:59:27.236Z,37.10
